createdAt,value
2023-02-19T00:00:09.432Z,513.9
2023-02-19T00:01:12.505Z,513.4
2023-02-19T00:02:14.467Z,513.1
2023-02-19T00:03:16.424Z,513.1
2023-02-19T00:04:18.303Z,513.1
2023-02-19T00:05:20.124Z,513.1
2023-02-19T00:06:21.946Z,514
2023-02-19T00:07:23.922Z,513.7
2023-02-19T00:08:25.769Z,513.1
2023-02-19T00:09:27.728Z,513.2
2023-02-19T00:10:29.558Z,514.2
2023-02-19T00:11:31.345Z,514.6
2023-02-19T00:12:33.271Z,514.4
2023-02-19T00:13:35.234Z,514.2
2023-02-19T00:14:37.084Z,513.8
2023-02-19T00:15:39.050Z,513.7
2023-02-19T00:16:40.802Z,513.6
2023-02-19T00:17:42.629Z,513.8
2023-02-19T00:18:44.480Z,514.8
2023-02-19T00:19:46.455Z,514.6
2023-02-19T00:20:48.275Z,514.9
2023-02-19T00:21:50.124Z,514.4
2023-02-19T00:22:51.976Z,514.3
2023-02-19T00:23:53.825Z,514.2
2023-02-19T00:24:55.781Z,514.3
2023-02-19T00:26:19.125Z,514.6
2023-02-19T00:27:20.887Z,514.8
2023-02-19T00:28:22.776Z,514.5
2023-02-19T00:29:24.654Z,514.3
2023-02-19T00:30:26.746Z,514.4
2023-02-19T00:31:33.901Z,515.2
2023-02-19T00:32:35.872Z,515.1
2023-02-19T00:33:37.641Z,515.3
2023-02-19T00:34:39.670Z,515.9
2023-02-19T00:35:41.651Z,515.9
2023-02-19T00:36:43.710Z,515.5
2023-02-19T00:37:45.623Z,515.5
2023-02-19T00:38:47.383Z,515.3
2023-02-19T00:39:49.234Z,515.5
2023-02-19T00:40:51.190Z,515.6
2023-02-19T00:41:53.032Z,515.4
2023-02-19T00:42:54.874Z,515.9
2023-02-19T00:43:56.742Z,515.9
2023-02-19T00:44:58.545Z,515.7
2023-02-19T00:46:00.460Z,515.4
2023-02-19T00:47:02.279Z,515.2
2023-02-19T00:48:04.138Z,515.5
2023-02-19T00:49:05.975Z,516.1
2023-02-19T00:50:07.834Z,516.4
2023-02-19T00:51:11.421Z,516.2
2023-02-19T00:52:13.479Z,516.2
2023-02-19T00:53:15.329Z,516.2
2023-02-19T00:54:17.294Z,516.5
2023-02-19T00:55:19.052Z,517.2
2023-02-19T00:56:20.897Z,517.2
2023-02-19T00:57:22.757Z,517.3
2023-02-19T00:58:24.509Z,516.9
2023-02-19T00:59:26.429Z,516.6
2023-02-19T01:00:28.201Z,517.4
2023-02-19T01:01:30.042Z,517.5
2023-02-19T01:02:31.886Z,517.7
2023-02-19T01:03:33.801Z,517.4
2023-02-19T01:04:35.831Z,517.3
2023-02-19T01:05:37.723Z,517.8
2023-02-19T01:06:39.495Z,518.4
2023-02-19T01:07:41.424Z,518
2023-02-19T01:08:43.283Z,518
2023-02-19T01:09:45.063Z,517.8
2023-02-19T01:10:46.878Z,517.6
2023-02-19T01:11:48.833Z,516.9
2023-02-19T01:12:50.672Z,516.3
2023-02-19T01:13:52.532Z,516.4
2023-02-19T01:14:54.380Z,516.8
2023-02-19T01:15:56.434Z,517.4
2023-02-19T01:16:58.276Z,517.3
2023-02-19T01:18:00.136Z,517.8
2023-02-19T01:19:01.990Z,518.4
2023-02-19T01:20:03.946Z,518.2
2023-02-19T01:21:05.815Z,517.7
2023-02-19T01:22:07.660Z,517.9
2023-02-19T01:23:09.684Z,518.5
2023-02-19T01:24:14.194Z,518.1
2023-02-19T01:25:16.149Z,518.2
2023-02-19T01:26:17.909Z,518.1
2023-02-19T01:27:19.745Z,518.1
2023-02-19T01:28:21.602Z,518.1
2023-02-19T01:29:23.450Z,517.2
2023-02-19T01:30:25.536Z,517
2023-02-19T01:31:28.157Z,516.5
2023-02-19T01:32:30.038Z,516.2
2023-02-19T01:33:31.781Z,515.9
2023-02-19T01:34:33.622Z,516.4
2023-02-19T01:35:35.483Z,516.5
2023-02-19T01:36:37.296Z,516.3
2023-02-19T01:37:39.294Z,515.8
2023-02-19T01:38:41.134Z,515.7
2023-02-19T01:39:43.081Z,515.5
2023-02-19T01:40:44.934Z,515.3
2023-02-19T01:41:46.771Z,515.1
2023-02-19T01:42:48.622Z,514.8
2023-02-19T01:43:50.481Z,515.1
2023-02-19T01:44:52.432Z,515.1
2023-02-19T01:45:54.382Z,515.3
2023-02-19T01:46:56.616Z,514.6
2023-02-19T01:47:58.488Z,514.4
2023-02-19T01:49:00.336Z,513.7
2023-02-19T01:50:02.222Z,513.9
2023-02-19T01:51:03.986Z,513.5
2023-02-19T01:52:05.888Z,513.2
2023-02-19T01:53:07.778Z,513.4
2023-02-19T01:54:09.517Z,512.9
2023-02-19T01:55:11.419Z,513.2
2023-02-19T01:56:13.189Z,513.6
2023-02-19T01:57:15.138Z,513.9
2023-02-19T01:58:16.994Z,513.5
2023-02-19T01:59:18.862Z,513.2
2023-02-19T02:00:20.694Z,513.3
2023-02-19T02:01:22.554Z,513.1
2023-02-19T02:02:24.488Z,512.8
2023-02-19T02:03:26.349Z,512.6
2023-02-19T02:04:28.129Z,513
2023-02-19T02:05:32.661Z,513.1
2023-02-19T02:06:37.297Z,512.9
2023-02-19T02:07:39.269Z,514
2023-02-19T02:08:41.042Z,514.6
2023-02-19T02:09:42.993Z,514.5
2023-02-19T02:10:44.717Z,513.9
2023-02-19T02:11:46.536Z,513.8
2023-02-19T02:12:48.313Z,514.3
2023-02-19T02:13:50.062Z,513.6
2023-02-19T02:14:51.811Z,513.7
2023-02-19T02:15:53.876Z,513.5
2023-02-19T02:16:55.828Z,513.4
2023-02-19T02:17:57.669Z,513
2023-02-19T02:18:59.419Z,513.1
2023-02-19T02:20:01.174Z,513.6
2023-02-19T02:21:02.938Z,514.5
2023-02-19T02:22:04.861Z,514.7
2023-02-19T02:23:06.724Z,513.9
2023-02-19T02:24:08.616Z,513.1
2023-02-19T02:25:10.529Z,513.7
2023-02-19T02:26:12.373Z,514.1
2023-02-19T02:27:14.328Z,512.8
2023-02-19T02:28:16.180Z,513
2023-02-19T02:29:18.020Z,514.3
2023-02-19T02:30:20.191Z,514
2023-02-19T02:31:22.510Z,513.6
2023-02-19T02:32:24.398Z,514
2023-02-19T02:33:26.251Z,514.2
2023-02-19T02:34:28.021Z,514.1
2023-02-19T02:35:32.531Z,514.2
2023-02-19T02:36:34.277Z,513.7
2023-02-19T02:37:36.111Z,513.8
2023-02-19T02:38:37.954Z,514.2
2023-02-19T02:39:39.812Z,514.6
2023-02-19T02:40:41.660Z,514.5
2023-02-19T02:41:43.506Z,514.3
2023-02-19T02:42:45.350Z,514.3
2023-02-19T02:43:47.095Z,514.3
2023-02-19T02:44:48.955Z,514.5
2023-02-19T02:45:51.201Z,514.3
2023-02-19T02:46:53.071Z,514.3
2023-02-19T02:47:54.915Z,514.5
2023-02-19T02:48:56.778Z,514.5
2023-02-19T02:49:58.619Z,515
2023-02-19T02:51:00.361Z,515.3
2023-02-19T02:52:02.114Z,514.9
2023-02-19T02:53:03.949Z,514.5
2023-02-19T02:54:05.808Z,514.5
2023-02-19T02:55:07.634Z,514.8
2023-02-19T02:56:09.514Z,515.5
2023-02-19T02:57:11.346Z,515.4
2023-02-19T02:58:13.214Z,514.8
2023-02-19T02:59:15.055Z,514.9
2023-02-19T03:00:16.917Z,514.6
2023-02-19T03:01:18.975Z,515
2023-02-19T03:02:21.051Z,514.6
2023-02-19T03:03:22.968Z,514.3
2023-02-19T03:04:24.821Z,514.1
2023-02-19T03:05:26.776Z,514.7
2023-02-19T03:06:28.616Z,514.9
2023-02-19T03:07:30.503Z,514.2
2023-02-19T03:08:32.323Z,514.1
2023-02-19T03:09:34.166Z,514
2023-02-19T03:10:36.052Z,514.3
2023-02-19T03:11:37.767Z,514.5
2023-02-19T03:12:39.566Z,514.1
2023-02-19T03:13:41.464Z,513.6
2023-02-19T03:14:43.218Z,513
2023-02-19T03:15:45.063Z,513
2023-02-19T03:16:47.380Z,513.4
2023-02-19T03:17:49.171Z,513.6
2023-02-19T03:18:51.032Z,513.4
2023-02-19T03:19:52.781Z,513.2
2023-02-19T03:20:54.624Z,513.1
2023-02-19T03:21:56.446Z,513.1
2023-02-19T03:22:58.218Z,512.7
2023-02-19T03:24:00.078Z,511.7
2023-02-19T03:25:01.913Z,511.6
2023-02-19T03:26:03.759Z,512.4
2023-02-19T03:27:08.385Z,513
2023-02-19T03:28:10.228Z,512.6
2023-02-19T03:29:12.086Z,511.7
2023-02-19T03:30:14.255Z,511.4
2023-02-19T03:31:16.794Z,511.4
2023-02-19T03:32:19.114Z,511.9
2023-02-19T03:33:21.026Z,511.4
2023-02-19T03:34:22.863Z,510.4
2023-02-19T03:35:24.716Z,510.2
2023-02-19T03:36:26.374Z,510.7
2023-02-19T03:37:28.315Z,510.9
2023-02-19T03:38:30.152Z,511.5
2023-02-19T03:39:32.114Z,511.2
2023-02-19T03:40:33.957Z,511.2
2023-02-19T03:41:35.836Z,510.3
2023-02-19T03:42:37.602Z,509.6
2023-02-19T03:43:39.419Z,509.3
2023-02-19T03:44:41.262Z,509.6
2023-02-19T03:45:43.300Z,510
2023-02-19T03:46:45.177Z,510
2023-02-19T03:47:47.117Z,509
2023-02-19T03:48:48.967Z,509
2023-02-19T03:49:50.819Z,509.5
2023-02-19T03:50:52.765Z,509.7
2023-02-19T03:51:54.612Z,509.3
2023-02-19T03:52:56.370Z,509.5
2023-02-19T03:53:58.221Z,509.9
2023-02-19T03:55:00.128Z,509.6
2023-02-19T03:56:02.114Z,509.1
2023-02-19T03:57:03.874Z,509.2
2023-02-19T03:58:05.725Z,509.3
2023-02-19T03:59:07.459Z,509
2023-02-19T04:00:09.220Z,509.3
2023-02-19T04:01:12.798Z,509.2
2023-02-19T04:02:14.980Z,509
2023-02-19T04:03:16.809Z,509.1
2023-02-19T04:04:18.939Z,508.7
2023-02-19T04:05:20.815Z,508.5
2023-02-19T04:06:22.676Z,508.5
2023-02-19T04:07:24.437Z,508.3
2023-02-19T04:08:26.266Z,508.4
2023-02-19T04:09:27.993Z,508.3
2023-02-19T04:10:29.964Z,508.3
2023-02-19T04:11:31.818Z,508.6
2023-02-19T04:12:33.686Z,508.3
2023-02-19T04:13:35.554Z,508.1
2023-02-19T04:14:37.263Z,508.2
2023-02-19T04:15:39.109Z,507.8
2023-02-19T04:16:41.178Z,507.5
2023-02-19T04:17:45.619Z,507.7
2023-02-19T04:18:47.338Z,507.9
2023-02-19T04:19:49.153Z,507.5
2023-02-19T04:20:51.131Z,507.9
2023-02-19T04:21:52.845Z,507.9
2023-02-19T04:22:54.523Z,508
2023-02-19T04:23:56.381Z,507.8
2023-02-19T04:24:58.340Z,508.1
2023-02-19T04:26:00.175Z,508.1
2023-02-19T04:27:02.022Z,508.2
2023-02-19T04:28:03.879Z,508
2023-02-19T04:29:05.732Z,507.8
2023-02-19T04:30:07.803Z,507.7
2023-02-19T04:31:11.256Z,507.8
2023-02-19T04:32:13.181Z,507.7
2023-02-19T04:33:14.972Z,507.6
2023-02-19T04:34:16.828Z,506.9
2023-02-19T04:35:18.668Z,506.9
2023-02-19T04:36:20.641Z,507.4
2023-02-19T04:37:22.472Z,507.3
2023-02-19T04:38:24.322Z,507
2023-02-19T04:39:26.097Z,506.9
2023-02-19T04:40:30.572Z,506.8
2023-02-19T04:41:32.430Z,507.3
2023-02-19T04:42:34.202Z,506.7
2023-02-19T04:43:36.019Z,506.8
2023-02-19T04:44:37.879Z,506.6
2023-02-19T04:45:39.833Z,506.6
2023-02-19T04:46:43.734Z,507.1
2023-02-19T04:47:45.475Z,507.2
2023-02-19T04:48:47.326Z,507.5
2023-02-19T04:49:49.178Z,507.7
2023-02-19T04:50:51.136Z,507.9
2023-02-19T04:51:53.094Z,507.5
2023-02-19T04:52:54.921Z,507.3
2023-02-19T04:53:56.878Z,506.9
2023-02-19T04:54:58.735Z,506.5
2023-02-19T04:56:00.777Z,507
2023-02-19T04:57:02.742Z,507
2023-02-19T04:58:04.589Z,506.8
2023-02-19T04:59:06.435Z,507.1
2023-02-19T05:00:08.278Z,507.2
2023-02-19T05:01:12.187Z,506.7
2023-02-19T05:02:14.350Z,506.2
2023-02-19T05:03:16.220Z,506.3
2023-02-19T05:04:18.283Z,505.7
2023-02-19T05:05:20.192Z,506.2
2023-02-19T05:06:22.153Z,505.9
2023-02-19T05:07:23.998Z,506.3
2023-02-19T05:08:25.740Z,506.5
2023-02-19T05:09:27.702Z,506.4
2023-02-19T05:10:29.558Z,507.1
2023-02-19T05:11:31.500Z,506.4
2023-02-19T05:12:33.360Z,506.7
2023-02-19T05:13:35.483Z,506.2
2023-02-19T05:14:37.330Z,505.7
2023-02-19T05:15:39.317Z,505.8
2023-02-19T05:16:41.267Z,505.8
2023-02-19T05:17:43.116Z,505.9
2023-02-19T05:18:44.875Z,506.2
2023-02-19T05:19:46.720Z,505.7
2023-02-19T05:20:48.455Z,505.4
2023-02-19T05:21:50.315Z,505.7
2023-02-19T05:22:52.164Z,505.2
2023-02-19T05:23:53.883Z,504.8
2023-02-19T05:24:55.754Z,504.5
2023-02-19T05:25:57.601Z,505
2023-02-19T05:26:59.487Z,505.1
2023-02-19T05:28:01.242Z,505.1
2023-02-19T05:29:02.977Z,505.3
2023-02-19T05:30:05.039Z,505.3
2023-02-19T05:31:06.988Z,504.9
2023-02-19T05:32:09.173Z,504.7
2023-02-19T05:33:11.061Z,504.6
2023-02-19T05:34:13.020Z,504.8
2023-02-19T05:35:14.881Z,504.2
2023-02-19T05:36:16.726Z,504.3
2023-02-19T05:37:18.574Z,504
2023-02-19T05:38:20.352Z,504.1
2023-02-19T05:39:22.176Z,503.6
2023-02-19T05:40:23.908Z,503.3
2023-02-19T05:41:25.767Z,503.9
2023-02-19T05:42:27.619Z,504.1
2023-02-19T05:43:29.468Z,504.1
2023-02-19T05:44:31.420Z,503.6
2023-02-19T05:45:33.269Z,504
2023-02-19T05:46:35.388Z,503.6
2023-02-19T05:47:37.278Z,503.4
2023-02-19T05:48:39.060Z,503.6
2023-02-19T05:49:40.867Z,504.1
2023-02-19T05:50:42.673Z,504.4
2023-02-19T05:51:44.336Z,504.5
2023-02-19T05:52:46.211Z,503.9
2023-02-19T05:53:48.065Z,503.5
2023-02-19T05:54:49.920Z,503.6
2023-02-19T05:55:51.637Z,503.4
2023-02-19T05:56:53.521Z,503.4
2023-02-19T05:57:55.470Z,503.7
2023-02-19T05:58:57.218Z,503.7
2023-02-19T05:59:59.061Z,503.6
2023-02-19T06:01:01.011Z,503.7
2023-02-19T06:02:02.871Z,503.6
2023-02-19T06:03:04.719Z,503.2
2023-02-19T06:04:07.058Z,503.3
2023-02-19T06:05:08.930Z,503
2023-02-19T06:06:10.773Z,503
2023-02-19T06:07:12.635Z,502.9
2023-02-19T06:08:14.380Z,502.7
2023-02-19T06:09:16.231Z,502.5
2023-02-19T06:10:18.181Z,502.3
2023-02-19T06:11:20.230Z,502.5
2023-02-19T06:12:21.990Z,502.3
2023-02-19T06:13:23.833Z,501.8
2023-02-19T06:14:25.786Z,501.5
2023-02-19T06:15:27.631Z,501.5
2023-02-19T06:16:29.786Z,501.6
2023-02-19T06:17:31.533Z,501.8
2023-02-19T06:18:33.297Z,501.5
2023-02-19T06:19:35.231Z,501.5
2023-02-19T06:20:37.092Z,501.7
2023-02-19T06:21:38.932Z,501.6
2023-02-19T06:22:40.891Z,501.9
2023-02-19T06:23:42.713Z,502
2023-02-19T06:24:44.776Z,501.6
2023-02-19T06:25:46.649Z,501.5
2023-02-19T06:26:48.399Z,501.3
2023-02-19T06:27:50.244Z,501.3
2023-02-19T06:28:52.214Z,501.4
2023-02-19T06:29:54.039Z,501.4
2023-02-19T06:30:55.787Z,501.4
2023-02-19T06:31:58.290Z,501.2
2023-02-19T06:33:00.215Z,501.7
2023-02-19T06:34:02.158Z,501.9
2023-02-19T06:35:03.906Z,501.9
2023-02-19T06:36:05.754Z,501.9
2023-02-19T06:37:07.512Z,501.5
2023-02-19T06:38:09.361Z,501.6
2023-02-19T06:39:11.308Z,501.7
2023-02-19T06:40:13.260Z,501.9
2023-02-19T06:41:15.424Z,501.4
2023-02-19T06:42:17.274Z,501.7
2023-02-19T06:43:19.124Z,501.2
2023-02-19T06:44:20.870Z,501.4
2023-02-19T06:45:25.705Z,501.4
2023-02-19T06:46:27.870Z,501.3
2023-02-19T06:47:29.806Z,500.8
2023-02-19T06:48:31.647Z,500.8
2023-02-19T06:49:33.604Z,500.8
2023-02-19T06:50:35.557Z,500.6
2023-02-19T06:51:37.399Z,500.5
2023-02-19T06:52:39.258Z,500.5
2023-02-19T06:53:41.106Z,500.4
2023-02-19T06:54:45.718Z,500.6
2023-02-19T06:55:47.566Z,500.6
2023-02-19T06:56:49.530Z,500.3
2023-02-19T06:57:51.240Z,500.4
2023-02-19T06:58:53.139Z,500.1
2023-02-19T06:59:54.967Z,499.9
2023-02-19T07:00:57.193Z,500.1
2023-02-19T07:01:59.186Z,500.2
2023-02-19T07:03:01.031Z,500.6
2023-02-19T07:04:03.024Z,500.4
2023-02-19T07:05:04.941Z,500.1
2023-02-19T07:06:06.783Z,500.3
2023-02-19T07:07:08.627Z,500.3
2023-02-19T07:08:10.327Z,500.1
2023-02-19T07:09:12.128Z,500.1
2023-02-19T07:10:13.903Z,500.1
2023-02-19T07:11:15.731Z,499.9
2023-02-19T07:12:17.687Z,500
2023-02-19T07:13:19.499Z,500.3
2023-02-19T07:14:21.391Z,500.1
2023-02-19T07:15:23.086Z,500.1
2023-02-19T07:16:25.115Z,500.4
2023-02-19T07:17:26.990Z,500.8
2023-02-19T07:18:28.872Z,500.5
2023-02-19T07:19:30.722Z,500.7
2023-02-19T07:20:32.583Z,501
2023-02-19T07:21:34.608Z,500.8
2023-02-19T07:22:36.477Z,501
2023-02-19T07:23:38.225Z,501.6
2023-02-19T07:24:40.080Z,501.5
2023-02-19T07:25:41.824Z,501.7
2023-02-19T07:26:43.594Z,501.5
2023-02-19T07:27:45.423Z,502
2023-02-19T07:28:47.184Z,502
2023-02-19T07:29:48.914Z,502.3
2023-02-19T07:30:50.794Z,502.4
2023-02-19T07:31:52.992Z,502.3
2023-02-19T07:32:54.885Z,502.8
2023-02-19T07:33:56.827Z,502.5
2023-02-19T07:34:58.676Z,502.9
2023-02-19T07:36:00.428Z,502.8
2023-02-19T07:37:02.285Z,503.3
2023-02-19T07:38:04.154Z,503.2
2023-02-19T07:39:06.493Z,503
2023-02-19T07:40:08.961Z,503
2023-02-19T07:41:12.340Z,503.1
2023-02-19T07:42:14.605Z,503.3
2023-02-19T07:43:16.559Z,503.5
2023-02-19T07:44:18.418Z,503.2
2023-02-19T07:45:20.177Z,503.7
2023-02-19T07:46:22.043Z,503.2
2023-02-19T07:47:23.955Z,503.3
2023-02-19T07:48:25.910Z,503.3
2023-02-19T07:49:27.563Z,503.2
2023-02-19T07:50:29.381Z,503.2
2023-02-19T07:51:31.246Z,503
2023-02-19T07:52:32.891Z,503.1
2023-02-19T07:53:34.767Z,503.3
2023-02-19T07:54:36.535Z,503.1
2023-02-19T07:55:38.351Z,502.8
2023-02-19T07:56:40.193Z,503.4
2023-02-19T07:57:41.975Z,503.3
2023-02-19T07:58:43.788Z,503.5
2023-02-19T07:59:45.639Z,503.3
2023-02-19T08:00:47.756Z,503.3
2023-02-19T08:01:49.644Z,503.4
2023-02-19T08:02:51.290Z,503.5
2023-02-19T08:03:53.145Z,503.6
2023-02-19T08:04:55.098Z,503.5
2023-02-19T08:05:56.738Z,503.4
2023-02-19T08:06:58.595Z,504.3
2023-02-19T08:08:00.445Z,504
2023-02-19T08:09:02.289Z,504.2
2023-02-19T08:10:04.251Z,504.1
2023-02-19T08:11:06.090Z,504.3
2023-02-19T08:12:07.868Z,504.4
2023-02-19T08:13:09.498Z,504.3
2023-02-19T08:14:11.345Z,504.2
2023-02-19T08:15:13.193Z,504.2
2023-02-19T08:16:43.739Z,504.5
2023-02-19T08:17:45.668Z,504.2
2023-02-19T08:18:47.515Z,504.6
2023-02-19T08:19:49.252Z,504.5
2023-02-19T08:20:51.116Z,504.3
2023-02-19T08:21:52.961Z,504.4
2023-02-19T08:22:54.815Z,504.2
2023-02-19T08:23:56.760Z,504.1
2023-02-19T08:24:58.615Z,504
2023-02-19T08:26:00.361Z,504
2023-02-19T08:27:02.101Z,503.6
2023-02-19T08:28:03.949Z,504.2
2023-02-19T08:29:05.802Z,503.7
2023-02-19T08:30:07.905Z,503.6
2023-02-19T08:31:11.921Z,503.6
2023-02-19T08:32:14.417Z,504
2023-02-19T08:33:16.271Z,504.3
2023-02-19T08:34:18.130Z,504.1
2023-02-19T08:35:19.986Z,504.1
2023-02-19T08:36:21.830Z,503.7
2023-02-19T08:37:23.675Z,503.7
2023-02-19T08:38:25.525Z,503.8
2023-02-19T08:39:27.382Z,503.4
2023-02-19T08:40:29.327Z,503.4
2023-02-19T08:41:31.217Z,503.3
2023-02-19T08:42:33.026Z,503.1
2023-02-19T08:43:35.088Z,503.2
2023-02-19T08:44:37.030Z,503.3
2023-02-19T08:45:38.827Z,503.6
2023-02-19T08:46:40.644Z,503.6
2023-02-19T08:47:42.483Z,503.8
2023-02-19T08:48:44.349Z,504
2023-02-19T08:49:46.194Z,504
2023-02-19T08:50:48.132Z,504
2023-02-19T08:51:49.808Z,503.8
2023-02-19T08:52:54.503Z,504.4
2023-02-19T08:53:56.359Z,504.3
2023-02-19T08:54:58.811Z,504.2
2023-02-19T08:56:01.002Z,504.2
2023-02-19T08:57:02.765Z,504.3
2023-02-19T08:58:04.568Z,504.4
2023-02-19T08:59:06.418Z,504.4
2023-02-19T09:00:08.154Z,504.7
2023-02-19T09:01:11.628Z,505.2
2023-02-19T09:02:13.704Z,504.9
2023-02-19T09:03:15.558Z,505.1
2023-02-19T09:04:17.728Z,504.9
2023-02-19T09:05:19.761Z,505.2
2023-02-19T09:06:21.614Z,505.9
2023-02-19T09:07:23.462Z,506
2023-02-19T09:08:25.328Z,506.5
2023-02-19T09:09:27.163Z,506.7
2023-02-19T09:10:29.027Z,506.5
2023-02-19T09:11:30.763Z,506.6
2023-02-19T09:12:32.613Z,506.5
2023-02-19T09:13:34.577Z,506.4
2023-02-19T09:14:36.427Z,506.5
2023-02-19T09:15:38.465Z,506.8
2023-02-19T09:16:40.330Z,507.1
2023-02-19T09:17:42.282Z,507.3
2023-02-19T09:18:44.030Z,507.4
2023-02-19T09:19:45.690Z,507.6
2023-02-19T09:20:47.528Z,507.5
2023-02-19T09:21:49.471Z,507.6
2023-02-19T09:22:51.316Z,508
2023-02-19T09:23:53.072Z,508.1
2023-02-19T09:24:54.912Z,508.1
2023-02-19T09:25:56.663Z,508.1
2023-02-19T09:27:01.082Z,508.2
2023-02-19T09:28:03.033Z,508.5
2023-02-19T09:29:04.890Z,508.4
2023-02-19T09:30:06.806Z,508.5
2023-02-19T09:31:09.891Z,508.3
2023-02-19T09:32:12.215Z,508.2
2023-02-19T09:33:14.234Z,508.4
2023-02-19T09:34:15.997Z,508
2023-02-19T09:35:17.929Z,508.2
2023-02-19T09:36:19.881Z,508.8
2023-02-19T09:37:21.621Z,508.5
2023-02-19T09:38:23.479Z,509
2023-02-19T09:39:25.329Z,508.7
2023-02-19T09:40:27.188Z,509
2023-02-19T09:41:29.036Z,509.2
2023-02-19T09:42:30.879Z,509.5
2023-02-19T09:43:32.719Z,509.4
2023-02-19T09:44:34.472Z,509
2023-02-19T09:45:36.117Z,509.3
2023-02-19T09:46:37.976Z,509.5
2023-02-19T09:47:39.924Z,509.3
2023-02-19T09:48:41.766Z,509.4
2023-02-19T09:49:43.621Z,509.2
2023-02-19T09:50:45.434Z,509.3
2023-02-19T09:51:47.327Z,509.5
2023-02-19T09:52:49.175Z,509.7
2023-02-19T09:53:51.026Z,509.7
2023-02-19T09:54:52.874Z,509.7
2023-02-19T09:55:54.718Z,510.2
2023-02-19T09:56:57.487Z,510.3
2023-02-19T09:57:59.394Z,510.6
2023-02-19T09:59:01.204Z,510.8
2023-02-19T10:00:03.037Z,510.8
2023-02-19T10:01:04.868Z,510.8
2023-02-19T10:02:06.941Z,511.1
2023-02-19T10:03:08.791Z,511.5
2023-02-19T10:04:10.757Z,512.1
2023-02-19T10:05:12.833Z,512.5
2023-02-19T10:06:14.754Z,512.3
2023-02-19T10:07:16.611Z,512.5
2023-02-19T10:08:18.655Z,513
2023-02-19T10:09:20.500Z,513
2023-02-19T10:10:22.360Z,513.3
2023-02-19T10:11:24.203Z,513.1
2023-02-19T10:12:25.852Z,513.5
2023-02-19T10:13:27.702Z,513.8
2023-02-19T10:14:29.680Z,513.5
2023-02-19T10:15:31.506Z,513.4
2023-02-19T10:16:33.349Z,514
2023-02-19T10:17:35.213Z,514.2
2023-02-19T10:18:36.923Z,514.5
2023-02-19T10:19:38.798Z,514.6
2023-02-19T10:20:40.647Z,515.1
2023-02-19T10:21:42.612Z,514.9
2023-02-19T10:22:44.450Z,514.9
2023-02-19T10:23:46.201Z,515.2
2023-02-19T10:24:48.049Z,515.8
2023-02-19T10:25:49.903Z,515.6
2023-02-19T10:26:51.865Z,516.1
2023-02-19T10:27:56.369Z,515.8
2023-02-19T10:28:58.258Z,516.1
2023-02-19T10:30:00.343Z,516.3
2023-02-19T10:31:02.435Z,516.3
2023-02-19T10:32:04.405Z,516.3
2023-02-19T10:33:06.233Z,516.8
2023-02-19T10:34:08.187Z,516.4
2023-02-19T10:35:10.037Z,516.8
2023-02-19T10:36:11.888Z,517.4
2023-02-19T10:37:13.654Z,517.4
2023-02-19T10:38:15.379Z,517.8
2023-02-19T10:39:17.325Z,517.9
2023-02-19T10:40:19.392Z,518.2
2023-02-19T10:41:21.224Z,518.2
2023-02-19T10:42:23.214Z,518.2
2023-02-19T10:43:25.042Z,518.6
2023-02-19T10:44:26.789Z,518.4
2023-02-19T10:45:28.628Z,518.9
2023-02-19T10:46:30.747Z,518.9
2023-02-19T10:47:32.749Z,519.2
2023-02-19T10:48:34.595Z,519.5
2023-02-19T10:49:36.442Z,519.6
2023-02-19T10:50:38.392Z,519.8
2023-02-19T10:51:40.344Z,520
2023-02-19T10:52:42.204Z,520.3
2023-02-19T10:53:44.050Z,520.5
2023-02-19T10:54:45.909Z,520.7
2023-02-19T10:55:47.651Z,520.8
2023-02-19T10:56:49.595Z,520.8
2023-02-19T10:57:51.359Z,520.6
2023-02-19T10:58:53.202Z,521
2023-02-19T10:59:55.056Z,521.2
2023-02-19T11:00:56.871Z,521.4
2023-02-19T11:01:59.227Z,521.7
2023-02-19T11:03:01.038Z,521.8
2023-02-19T11:04:02.884Z,522
2023-02-19T11:05:04.702Z,521.8
2023-02-19T11:06:06.570Z,522.2
2023-02-19T11:07:08.519Z,522.3
2023-02-19T11:08:10.294Z,523.1
2023-02-19T11:09:12.106Z,523.4
2023-02-19T11:10:14.065Z,523.9
2023-02-19T11:11:15.952Z,523.7
2023-02-19T11:12:17.933Z,524
2023-02-19T11:13:19.706Z,523.9
2023-02-19T11:14:21.453Z,524.1
2023-02-19T11:15:23.204Z,524.4
2023-02-19T11:16:25.291Z,524.5
2023-02-19T11:17:27.107Z,524.6
2023-02-19T11:18:29.069Z,524.7
2023-02-19T11:19:31.007Z,524.6
2023-02-19T11:20:32.876Z,525.1
2023-02-19T11:21:34.722Z,524.8
2023-02-19T11:22:36.685Z,524.9
2023-02-19T11:23:38.522Z,525.1
2023-02-19T11:24:40.444Z,525.7
2023-02-19T11:25:42.313Z,525.5
2023-02-19T11:26:44.073Z,525.8
2023-02-19T11:27:46.125Z,525.4
2023-02-19T11:28:48.074Z,526
2023-02-19T11:29:49.932Z,526.1
2023-02-19T11:30:51.769Z,526.1
2023-02-19T11:31:53.924Z,526.1
2023-02-19T11:32:55.876Z,526.4
2023-02-19T11:33:57.729Z,526.3
2023-02-19T11:34:59.492Z,526.5
2023-02-19T11:36:01.197Z,526.4
2023-02-19T11:37:03.191Z,526.7
2023-02-19T11:38:05.038Z,527.2
2023-02-19T11:39:06.879Z,527.3
2023-02-19T11:40:08.740Z,527.4
2023-02-19T11:41:12.347Z,527.6
2023-02-19T11:42:14.278Z,527.8
2023-02-19T11:43:16.232Z,527.8
2023-02-19T11:44:18.215Z,528
2023-02-19T11:45:19.980Z,527.8
2023-02-19T11:46:22.111Z,527.6
2023-02-19T11:47:23.836Z,528.1
2023-02-19T11:48:25.691Z,528.2
2023-02-19T11:49:27.639Z,528.2
2023-02-19T11:50:29.490Z,528.1
2023-02-19T11:51:31.262Z,528.5
2023-02-19T11:52:33.091Z,528.7
2023-02-19T11:53:35.042Z,529
2023-02-19T11:54:36.892Z,529.4
2023-02-19T11:55:38.664Z,529.3
2023-02-19T11:56:40.485Z,529.6
2023-02-19T11:57:42.436Z,529.4
2023-02-19T11:58:44.190Z,529.8
2023-02-19T11:59:46.033Z,529.9
2023-02-19T12:00:47.801Z,530.3
2023-02-19T12:01:49.936Z,530.4
2023-02-19T12:02:51.799Z,530.6
2023-02-19T12:03:53.736Z,530.4
2023-02-19T12:04:55.643Z,531
2023-02-19T12:05:57.547Z,530.7
2023-02-19T12:06:59.293Z,531.1
2023-02-19T12:08:01.148Z,531.6
2023-02-19T12:09:02.997Z,531.9
2023-02-19T12:10:04.851Z,531.2
2023-02-19T12:11:09.366Z,531.9
2023-02-19T12:12:11.202Z,532
2023-02-19T12:13:13.061Z,532.3
2023-02-19T12:14:15.027Z,532
2023-02-19T12:15:16.940Z,532.3
2023-02-19T12:16:19.063Z,532.3
2023-02-19T12:17:20.958Z,532.4
2023-02-19T12:18:22.779Z,532.6
2023-02-19T12:19:24.574Z,532.9
2023-02-19T12:20:26.405Z,532.9
2023-02-19T12:21:28.342Z,533.3
2023-02-19T12:22:30.215Z,533.2
2023-02-19T12:23:32.169Z,533.5
2023-02-19T12:24:34.012Z,534.1
2023-02-19T12:25:35.770Z,534.4
2023-02-19T12:26:37.661Z,534.2
2023-02-19T12:27:39.469Z,534.5
2023-02-19T12:28:41.317Z,534.8
2023-02-19T12:29:43.274Z,534.8
2023-02-19T12:30:45.256Z,534.6
2023-02-19T12:31:47.175Z,534.9
2023-02-19T12:32:48.962Z,534.9
2023-02-19T12:33:50.782Z,535.2
2023-02-19T12:34:52.617Z,535.3
2023-02-19T12:35:54.466Z,535.8
2023-02-19T12:36:56.232Z,536.1
2023-02-19T12:37:58.074Z,536.5
2023-02-19T12:39:00.024Z,536.6
2023-02-19T12:40:01.866Z,536.8
2023-02-19T12:41:03.730Z,536.8
2023-02-19T12:42:05.602Z,536.9
2023-02-19T12:43:10.207Z,537.3
2023-02-19T12:44:12.036Z,537.8
2023-02-19T12:45:13.881Z,538
2023-02-19T12:46:16.315Z,538
2023-02-19T12:47:18.198Z,538.3
2023-02-19T12:48:20.045Z,538.5
2023-02-19T12:49:21.899Z,538.4
2023-02-19T12:50:23.762Z,538.6
2023-02-19T12:51:25.596Z,538.8
2023-02-19T12:52:27.462Z,538.7
2023-02-19T12:53:29.201Z,539.2
2023-02-19T12:54:31.053Z,539.3
2023-02-19T12:55:32.801Z,539.7
2023-02-19T12:56:34.645Z,539.9
2023-02-19T12:57:36.493Z,540.2
2023-02-19T12:58:38.356Z,540.7
2023-02-19T12:59:40.207Z,540.9
2023-02-19T13:00:42.150Z,540.9
2023-02-19T13:01:44.116Z,541.2
2023-02-19T13:02:45.963Z,541.2
2023-02-19T13:03:47.704Z,541.2
2023-02-19T13:04:49.563Z,541.5
2023-02-19T13:05:51.400Z,541.7
2023-02-19T13:06:53.265Z,542
2023-02-19T13:07:55.105Z,542
2023-02-19T13:09:08.019Z,542.1
2023-02-19T13:10:09.900Z,542.1
2023-02-19T13:11:13.307Z,542.1
2023-02-19T13:12:15.520Z,542.3
2023-02-19T13:13:17.308Z,542.6
2023-02-19T13:14:19.129Z,542.4
2023-02-19T13:15:20.851Z,542.7
2023-02-19T13:16:22.973Z,542.7
2023-02-19T13:17:24.877Z,542.7
2023-02-19T13:18:26.713Z,543.1
2023-02-19T13:19:28.634Z,543.1
2023-02-19T13:20:30.514Z,543.2
2023-02-19T13:21:35.646Z,543.1
2023-02-19T13:22:37.589Z,543.5
2023-02-19T13:23:39.706Z,543.1